ASX668 LGSK-LYBE
Flight info
| Callsign | ASX668 |
|---|---|
| Flight time | 1h 6m |
| Altitude | 43000 |
| Route | IBIDI UL617 AGISA DCT MAKED DCT LONTA UM749 UDVAR DCT GAZON |
| Aircraft | C700/M-SBDGRWXY/LB2 |
Departure
| Time | 2026-04-29 07:11 |
|---|---|
| Airport | Skiathos Island National Airport (LGSK) |
Arrival
| Time | 2026-04-29 08:17 |
|---|---|
| Airport | Belgrade Nikola Tesla Airport (LYBE) |
| Time | Latitude | Longitude | Altitude | Speed | Heading |
|---|---|---|---|---|---|
| 2026-04-29 06:59 | 39.17648 | 23.50213 | 34 ft | 0 kts | 291° |
| 2026-04-29 07:07 | 39.17649 | 23.50212 | 34 ft | 1 kts | 289° |
| 2026-04-29 07:08 | 39.17629 | 23.50220 | 34 ft | 6 kts | 136° |
| 2026-04-29 07:08 | 39.17585 | 23.50217 | 34 ft | 7 kts | 181° |
| 2026-04-29 07:08 | 39.17536 | 23.50274 | 29 ft | 15 kts | 162° |
| 2026-04-29 07:08 | 39.17419 | 23.50235 | 26 ft | 21 kts | 200° |
| 2026-04-29 07:09 | 39.17264 | 23.50166 | 17 ft | 26 kts | 198° |
| 2026-04-29 07:09 | 39.17112 | 23.50103 | 14 ft | 15 kts | 198° |
| 2026-04-29 07:09 | 39.17042 | 23.50095 | 12 ft | 9 kts | 149° |
| 2026-04-29 07:09 | 39.17017 | 23.50059 | 10 ft | 8 kts | 318° |
| 2026-04-29 07:10 | 39.17041 | 23.50068 | 11 ft | 0 kts | 20° |
| 2026-04-29 07:10 | 39.17043 | 23.50069 | 11 ft | 4 kts | 20° |
| 2026-04-29 07:10 | 39.17365 | 23.50211 | 23 ft | 100 kts | 19° |
| 2026-04-29 07:10 | 39.18322 | 23.50631 | 129 ft | 181 kts | 19° |
| 2026-04-29 07:11 | 39.19538 | 23.51151 | 931 ft | 181 kts | 17° |
| 2026-04-29 07:11 | 39.20789 | 23.51712 | 1690 ft | 204 kts | 19° |
| 2026-04-29 07:11 | 39.22123 | 23.52326 | 2450 ft | 207 kts | 19° |
| 2026-04-29 07:11 | 39.23506 | 23.52943 | 3205 ft | 208 kts | 18° |
| 2026-04-29 07:12 | 39.24910 | 23.53567 | 3964 ft | 213 kts | 20° |
| 2026-04-29 07:12 | 39.26185 | 23.54559 | 4707 ft | 218 kts | 43° |
| 2026-04-29 07:12 | 39.27095 | 23.56117 | 5460 ft | 220 kts | 64° |
| 2026-04-29 07:12 | 39.27505 | 23.58021 | 6217 ft | 220 kts | 86° |
| 2026-04-29 07:13 | 39.27341 | 23.59995 | 6973 ft | 224 kts | 108° |
| 2026-04-29 07:13 | 39.26630 | 23.61734 | 7715 ft | 224 kts | 129° |
| 2026-04-29 07:13 | 39.25438 | 23.63045 | 8469 ft | 227 kts | 152° |
| 2026-04-29 07:13 | 39.23952 | 23.63676 | 9216 ft | 227 kts | 174° |
| 2026-04-29 07:14 | 39.22365 | 23.63531 | 9971 ft | 230 kts | 196° |
| 2026-04-29 07:14 | 39.20852 | 23.62852 | 10728 ft | 232 kts | 200° |
| 2026-04-29 07:14 | 39.19423 | 23.61854 | 11476 ft | 235 kts | 221° |
| 2026-04-29 07:14 | 39.18419 | 23.60198 | 12223 ft | 238 kts | 244° |
| 2026-04-29 07:15 | 39.17985 | 23.58120 | 12873 ft | 241 kts | 267° |
| 2026-04-29 07:15 | 39.18231 | 23.55992 | 13499 ft | 246 kts | 290° |
| 2026-04-29 07:15 | 39.19141 | 23.54127 | 14128 ft | 247 kts | 314° |
| 2026-04-29 07:15 | 39.20618 | 23.52863 | 14758 ft | 271 kts | 339° |
| 2026-04-29 07:16 | 39.22572 | 23.52389 | 15367 ft | 302 kts | 354° |
| 2026-04-29 07:16 | 39.24748 | 23.52177 | 15902 ft | 318 kts | 356° |
| 2026-04-29 07:16 | 39.26953 | 23.51971 | 16435 ft | 324 kts | 355° |
| 2026-04-29 07:16 | 39.29204 | 23.51696 | 16959 ft | 322 kts | 354° |
| 2026-04-29 07:17 | 39.31428 | 23.51409 | 17477 ft | 330 kts | 354° |
| 2026-04-29 07:17 | 39.33707 | 23.51139 | 17989 ft | 328 kts | 354° |
| 2026-04-29 07:17 | 39.36005 | 23.50875 | 18507 ft | 334 kts | 354° |
| 2026-04-29 07:17 | 39.38329 | 23.50599 | 19015 ft | 334 kts | 354° |
| 2026-04-29 07:18 | 39.40648 | 23.50314 | 19530 ft | 338 kts | 353° |
| 2026-04-29 07:18 | 39.42962 | 23.49612 | 19928 ft | 350 kts | 339° |
| 2026-04-29 07:18 | 39.45337 | 23.48435 | 20209 ft | 381 kts | 338° |
| 2026-04-29 07:18 | 39.47898 | 23.47177 | 20664 ft | 405 kts | 339° |
| 2026-04-29 07:19 | 39.50571 | 23.45901 | 21186 ft | 410 kts | 339° |
| 2026-04-29 07:19 | 39.53260 | 23.44609 | 21704 ft | 415 kts | 339° |
| 2026-04-29 07:19 | 39.55981 | 23.43278 | 22206 ft | 420 kts | 339° |
| 2026-04-29 07:19 | 39.58710 | 23.41947 | 22727 ft | 420 kts | 339° |
| 2026-04-29 07:20 | 39.60534 | 23.41064 | 23066 ft | 424 kts | 339° |
| 2026-04-29 07:20 | 39.63320 | 23.39716 | 23572 ft | 429 kts | 339° |
| 2026-04-29 07:20 | 39.66113 | 23.38355 | 24083 ft | 429 kts | 339° |
| 2026-04-29 07:20 | 39.68921 | 23.36984 | 24577 ft | 433 kts | 339° |
| 2026-04-29 07:21 | 39.71760 | 23.35602 | 25084 ft | 438 kts | 339° |
| 2026-04-29 07:21 | 39.74598 | 23.34127 | 25585 ft | 440 kts | 335° |
| 2026-04-29 07:21 | 39.77392 | 23.32475 | 26086 ft | 442 kts | 335° |
| 2026-04-29 07:21 | 39.80203 | 23.30810 | 26585 ft | 447 kts | 335° |
| 2026-04-29 07:22 | 39.83067 | 23.29151 | 27088 ft | 452 kts | 336° |
| 2026-04-29 07:22 | 39.85945 | 23.27485 | 27592 ft | 452 kts | 335° |
| 2026-04-29 07:22 | 39.88827 | 23.25793 | 28088 ft | 457 kts | 335° |
| 2026-04-29 07:22 | 39.91737 | 23.24079 | 28589 ft | 461 kts | 335° |
| 2026-04-29 07:23 | 39.94677 | 23.22359 | 29089 ft | 465 kts | 335° |
| 2026-04-29 07:23 | 39.97640 | 23.20627 | 29590 ft | 468 kts | 335° |
| 2026-04-29 07:23 | 40.00619 | 23.18875 | 30089 ft | 471 kts | 335° |
| 2026-04-29 07:23 | 40.03607 | 23.17115 | 30589 ft | 473 kts | 335° |
| 2026-04-29 07:24 | 40.06616 | 23.15347 | 31090 ft | 475 kts | 335° |
| 2026-04-29 07:24 | 40.09597 | 23.13593 | 31582 ft | 476 kts | 335° |
| 2026-04-29 07:24 | 40.12617 | 23.11811 | 32078 ft | 476 kts | 335° |
| 2026-04-29 07:24 | 40.15641 | 23.10026 | 32577 ft | 476 kts | 335° |
| 2026-04-29 07:25 | 40.18660 | 23.08244 | 33072 ft | 475 kts | 335° |
| 2026-04-29 07:25 | 40.21670 | 23.06463 | 33567 ft | 474 kts | 335° |
| 2026-04-29 07:25 | 40.24675 | 23.04686 | 34061 ft | 473 kts | 335° |
| 2026-04-29 07:25 | 40.27667 | 23.02912 | 34555 ft | 471 kts | 335° |
| 2026-04-29 07:26 | 40.30651 | 23.01143 | 35048 ft | 469 kts | 335° |
| 2026-04-29 07:26 | 40.33631 | 22.99375 | 35542 ft | 467 kts | 335° |
| 2026-04-29 07:26 | 40.36584 | 22.97620 | 35975 ft | 467 kts | 335° |
| 2026-04-29 07:26 | 40.39543 | 22.95860 | 36342 ft | 467 kts | 335° |
| 2026-04-29 07:27 | 40.42467 | 22.94119 | 36705 ft | 467 kts | 335° |
| 2026-04-29 07:27 | 40.45423 | 22.92358 | 37072 ft | 467 kts | 335° |
| 2026-04-29 07:27 | 40.48380 | 22.90594 | 37440 ft | 467 kts | 335° |
| 2026-04-29 07:27 | 40.51334 | 22.88831 | 37807 ft | 466 kts | 335° |
| 2026-04-29 07:28 | 40.54285 | 22.87067 | 38174 ft | 465 kts | 335° |
| 2026-04-29 07:28 | 40.57230 | 22.85306 | 38541 ft | 464 kts | 335° |
| 2026-04-29 07:28 | 40.60169 | 22.83546 | 38906 ft | 463 kts | 335° |
| 2026-04-29 07:28 | 40.63099 | 22.81790 | 39272 ft | 462 kts | 335° |
| 2026-04-29 07:29 | 40.66023 | 22.80035 | 39641 ft | 461 kts | 335° |
| 2026-04-29 07:29 | 40.68935 | 22.78287 | 40006 ft | 460 kts | 335° |
| 2026-04-29 07:29 | 40.71848 | 22.76536 | 40325 ft | 459 kts | 335° |
| 2026-04-29 07:29 | 40.74763 | 22.74782 | 40576 ft | 461 kts | 335° |
| 2026-04-29 07:30 | 40.77684 | 22.73023 | 40819 ft | 462 kts | 335° |
| 2026-04-29 07:30 | 40.80606 | 22.71261 | 41063 ft | 463 kts | 335° |
| 2026-04-29 07:30 | 40.83534 | 22.69495 | 41312 ft | 463 kts | 335° |
| 2026-04-29 07:31 | 40.89396 | 22.65952 | 41796 ft | 463 kts | 335° |
| 2026-04-29 07:31 | 40.92329 | 22.64177 | 42041 ft | 463 kts | 335° |
| 2026-04-29 07:31 | 40.95259 | 22.62402 | 42288 ft | 463 kts | 335° |
| 2026-04-29 07:31 | 40.98188 | 22.60626 | 42513 ft | 463 kts | 335° |
| 2026-04-29 07:32 | 41.01122 | 22.58845 | 42681 ft | 465 kts | 335° |
| 2026-04-29 07:32 | 41.04028 | 22.57079 | 42844 ft | 466 kts | 335° |
| 2026-04-29 07:32 | 41.06974 | 22.55288 | 42995 ft | 467 kts | 335° |
| 2026-04-29 07:32 | 41.09943 | 22.53480 | 42998 ft | 472 kts | 335° |
| 2026-04-29 07:33 | 41.15551 | 22.48883 | 43011 ft | 479 kts | 321° |
| 2026-04-29 07:33 | 41.20745 | 22.43316 | 43012 ft | 477 kts | 321° |
| 2026-04-29 07:34 | 41.25893 | 22.37837 | 43009 ft | 474 kts | 321° |
| 2026-04-29 07:34 | 41.31058 | 22.32295 | 43008 ft | 479 kts | 321° |
| 2026-04-29 07:35 | 41.36231 | 22.26753 | 43012 ft | 475 kts | 321° |
| 2026-04-29 07:35 | 41.41358 | 22.21238 | 43008 ft | 473 kts | 321° |
| 2026-04-29 07:36 | 41.46505 | 22.15695 | 43008 ft | 478 kts | 321° |
| 2026-04-29 07:36 | 41.51683 | 22.10104 | 43011 ft | 477 kts | 321° |
| 2026-04-29 07:37 | 41.56827 | 22.04540 | 43008 ft | 475 kts | 320° |
| 2026-04-29 07:37 | 41.61916 | 21.99022 | 43007 ft | 474 kts | 320° |
| 2026-04-29 07:38 | 41.67035 | 21.93461 | 43005 ft | 475 kts | 320° |
| 2026-04-29 07:38 | 41.72191 | 21.87848 | 43008 ft | 479 kts | 320° |
| 2026-04-29 07:39 | 41.77338 | 21.82233 | 43010 ft | 476 kts | 320° |
| 2026-04-29 07:39 | 41.82462 | 21.76630 | 43009 ft | 474 kts | 320° |
| 2026-04-29 07:40 | 41.87568 | 21.71035 | 43007 ft | 473 kts | 320° |
| 2026-04-29 07:40 | 41.92690 | 21.65412 | 43007 ft | 478 kts | 320° |
| 2026-04-29 07:41 | 41.97804 | 21.59784 | 43011 ft | 477 kts | 320° |
| 2026-04-29 07:41 | 42.02931 | 21.54131 | 43010 ft | 476 kts | 320° |
| 2026-04-29 07:42 | 42.08043 | 21.48480 | 43008 ft | 474 kts | 320° |
| 2026-04-29 07:42 | 42.13141 | 21.42855 | 43005 ft | 473 kts | 322° |
| 2026-04-29 07:43 | 42.18956 | 21.38663 | 43008 ft | 479 kts | 341° |
| 2026-04-29 07:43 | 42.25388 | 21.36257 | 43010 ft | 478 kts | 345° |
| 2026-04-29 07:44 | 42.31792 | 21.33889 | 43010 ft | 476 kts | 344° |
| 2026-04-29 07:44 | 42.38163 | 21.31538 | 43009 ft | 474 kts | 344° |
| 2026-04-29 07:45 | 42.44574 | 21.29165 | 43012 ft | 480 kts | 344° |
| 2026-04-29 07:45 | 42.51004 | 21.26780 | 43008 ft | 478 kts | 344° |
| 2026-04-29 07:46 | 42.57365 | 21.24416 | 43009 ft | 476 kts | 344° |
| 2026-04-29 07:46 | 42.63745 | 21.22039 | 43006 ft | 474 kts | 344° |
| 2026-04-29 07:47 | 42.70116 | 21.19661 | 43006 ft | 477 kts | 344° |
| 2026-04-29 07:47 | 42.76552 | 21.17253 | 43010 ft | 480 kts | 344° |
| 2026-04-29 07:48 | 42.82970 | 21.14847 | 43010 ft | 477 kts | 344° |
| 2026-04-29 07:48 | 42.89366 | 21.12444 | 43010 ft | 476 kts | 344° |
| 2026-04-29 07:49 | 42.95739 | 21.10045 | 43007 ft | 474 kts | 344° |
| 2026-04-29 07:49 | 43.02126 | 21.07635 | 43007 ft | 478 kts | 344° |
| 2026-04-29 07:50 | 43.05344 | 21.06418 | 42839 ft | 482 kts | 344° |
| 2026-04-29 07:50 | 43.08553 | 21.05205 | 42231 ft | 473 kts | 344° |
| 2026-04-29 07:50 | 43.11692 | 21.04110 | 41612 ft | 461 kts | 349° |
| 2026-04-29 07:50 | 43.14851 | 21.03579 | 41005 ft | 455 kts | 354° |
| 2026-04-29 07:51 | 43.18021 | 21.03138 | 40397 ft | 461 kts | 354° |
| 2026-04-29 07:51 | 43.21229 | 21.02666 | 39782 ft | 464 kts | 353° |
| 2026-04-29 07:51 | 43.24437 | 21.02189 | 39163 ft | 463 kts | 353° |
| 2026-04-29 07:51 | 43.27591 | 21.01734 | 38556 ft | 461 kts | 354° |
| 2026-04-29 07:52 | 43.30782 | 21.01279 | 37942 ft | 460 kts | 354° |
| 2026-04-29 07:52 | 43.33963 | 21.00816 | 37331 ft | 461 kts | 353° |
| 2026-04-29 07:52 | 43.37163 | 21.00345 | 36715 ft | 463 kts | 353° |
| 2026-04-29 07:52 | 43.40368 | 20.99877 | 36098 ft | 464 kts | 354° |
| 2026-04-29 07:53 | 43.43579 | 20.99412 | 35477 ft | 464 kts | 354° |
| 2026-04-29 07:53 | 43.46782 | 20.98946 | 34863 ft | 463 kts | 353° |
| 2026-04-29 07:53 | 43.49987 | 20.98475 | 34248 ft | 464 kts | 353° |
| 2026-04-29 07:53 | 43.53207 | 20.98004 | 33626 ft | 467 kts | 354° |
| 2026-04-29 07:54 | 43.56446 | 20.97530 | 33001 ft | 470 kts | 353° |
| 2026-04-29 07:54 | 43.59710 | 20.97051 | 32372 ft | 471 kts | 353° |
| 2026-04-29 07:54 | 43.62966 | 20.96573 | 31745 ft | 471 kts | 353° |
| 2026-04-29 07:54 | 43.66226 | 20.96094 | 31117 ft | 471 kts | 353° |
| 2026-04-29 07:55 | 43.69487 | 20.95615 | 30490 ft | 472 kts | 353° |
| 2026-04-29 07:55 | 43.72766 | 20.95131 | 29857 ft | 475 kts | 353° |
| 2026-04-29 07:55 | 43.76024 | 20.94651 | 29230 ft | 465 kts | 353° |
| 2026-04-29 07:55 | 43.79230 | 20.94178 | 28615 ft | 463 kts | 353° |
| 2026-04-29 07:56 | 43.82418 | 20.93706 | 27998 ft | 459 kts | 353° |
| 2026-04-29 07:56 | 43.85571 | 20.93240 | 27395 ft | 453 kts | 353° |
| 2026-04-29 07:56 | 43.88688 | 20.92779 | 26797 ft | 448 kts | 353° |
| 2026-04-29 07:56 | 43.91769 | 20.92323 | 26207 ft | 444 kts | 353° |
| 2026-04-29 07:57 | 43.94826 | 20.91868 | 25617 ft | 441 kts | 353° |
| 2026-04-29 07:57 | 43.97870 | 20.91415 | 25033 ft | 438 kts | 353° |
| 2026-04-29 07:57 | 44.00854 | 20.90973 | 24460 ft | 435 kts | 353° |
| 2026-04-29 07:57 | 44.03849 | 20.90528 | 23884 ft | 431 kts | 353° |
| 2026-04-29 07:58 | 44.06819 | 20.90084 | 23313 ft | 427 kts | 353° |
| 2026-04-29 07:58 | 44.09758 | 20.89646 | 22747 ft | 423 kts | 353° |
| 2026-04-29 07:58 | 44.12669 | 20.89211 | 22187 ft | 419 kts | 353° |
| 2026-04-29 07:58 | 44.15517 | 20.88446 | 21631 ft | 414 kts | 343° |
| 2026-04-29 07:59 | 44.18182 | 20.86975 | 21084 ft | 410 kts | 333° |
| 2026-04-29 07:59 | 44.20620 | 20.84956 | 20544 ft | 406 kts | 327° |
| 2026-04-29 07:59 | 44.22997 | 20.82865 | 20005 ft | 403 kts | 328° |
| 2026-04-29 07:59 | 44.25382 | 20.80820 | 19472 ft | 401 kts | 328° |
| 2026-04-29 08:00 | 44.27750 | 20.78778 | 18940 ft | 399 kts | 327° |
| 2026-04-29 08:00 | 44.30089 | 20.76728 | 18412 ft | 396 kts | 327° |
| 2026-04-29 08:00 | 44.32412 | 20.74695 | 17888 ft | 392 kts | 327° |
| 2026-04-29 08:00 | 44.34717 | 20.72677 | 17366 ft | 389 kts | 326° |
| 2026-04-29 08:01 | 44.36782 | 20.70263 | 16848 ft | 386 kts | 314° |
| 2026-04-29 08:01 | 44.38459 | 20.67366 | 16340 ft | 383 kts | 304° |
| 2026-04-29 08:01 | 44.39935 | 20.64279 | 15836 ft | 380 kts | 303° |
| 2026-04-29 08:01 | 44.41408 | 20.61282 | 15338 ft | 377 kts | 304° |
| 2026-04-29 08:02 | 44.42484 | 20.59119 | 14977 ft | 375 kts | 304° |
| 2026-04-29 08:02 | 44.43973 | 20.56077 | 14473 ft | 372 kts | 303° |
| 2026-04-29 08:02 | 44.45417 | 20.53087 | 13980 ft | 369 kts | 303° |
| 2026-04-29 08:02 | 44.46859 | 20.50120 | 13490 ft | 367 kts | 304° |
| 2026-04-29 08:03 | 44.48271 | 20.47237 | 13230 ft | 347 kts | 302° |
| 2026-04-29 08:03 | 44.49575 | 20.44569 | 12732 ft | 317 kts | 302° |
| 2026-04-29 08:03 | 44.50756 | 20.42123 | 12329 ft | 291 kts | 302° |
| 2026-04-29 08:03 | 44.51849 | 20.39857 | 11958 ft | 272 kts | 302° |
| 2026-04-29 08:04 | 44.52894 | 20.37694 | 11611 ft | 268 kts | 302° |
| 2026-04-29 08:04 | 44.53948 | 20.35512 | 11259 ft | 271 kts | 302° |
| 2026-04-29 08:04 | 44.55017 | 20.33297 | 10762 ft | 276 kts | 302° |
| 2026-04-29 08:04 | 44.56078 | 20.31105 | 10371 ft | 269 kts | 302° |
| 2026-04-29 08:05 | 44.57120 | 20.28946 | 10010 ft | 268 kts | 302° |
| 2026-04-29 08:05 | 44.58167 | 20.26771 | 9639 ft | 269 kts | 302° |
| 2026-04-29 08:05 | 44.59216 | 20.24594 | 9285 ft | 269 kts | 302° |
| 2026-04-29 08:05 | 44.60266 | 20.22416 | 8932 ft | 270 kts | 303° |
| 2026-04-29 08:06 | 44.61319 | 20.20224 | 8574 ft | 271 kts | 303° |
| 2026-04-29 08:06 | 44.62374 | 20.18027 | 8217 ft | 271 kts | 303° |
| 2026-04-29 08:06 | 44.63429 | 20.15836 | 7861 ft | 271 kts | 304° |
| 2026-04-29 08:06 | 44.64535 | 20.13705 | 7505 ft | 270 kts | 312° |
| 2026-04-29 08:07 | 44.65909 | 20.11957 | 7159 ft | 270 kts | 320° |
| 2026-04-29 08:07 | 44.67330 | 20.10234 | 6805 ft | 270 kts | 319° |
| 2026-04-29 08:07 | 44.68749 | 20.08456 | 6442 ft | 271 kts | 319° |
| 2026-04-29 08:07 | 44.70135 | 20.06729 | 6074 ft | 267 kts | 320° |
| 2026-04-29 08:08 | 44.71526 | 20.05014 | 5732 ft | 267 kts | 320° |
| 2026-04-29 08:08 | 44.72917 | 20.03299 | 5372 ft | 264 kts | 320° |
| 2026-04-29 08:08 | 44.74291 | 20.01594 | 5021 ft | 262 kts | 320° |
| 2026-04-29 08:08 | 44.75666 | 19.99887 | 4668 ft | 264 kts | 320° |
| 2026-04-29 08:09 | 44.77075 | 19.98262 | 4321 ft | 262 kts | 328° |
| 2026-04-29 08:09 | 44.78717 | 19.97204 | 4015 ft | 256 kts | 344° |
| 2026-04-29 08:09 | 44.80442 | 19.96785 | 3999 ft | 253 kts | 358° |
| 2026-04-29 08:09 | 44.82217 | 19.96970 | 4003 ft | 257 kts | 9° |
| 2026-04-29 08:10 | 44.83988 | 19.97326 | 4000 ft | 257 kts | 8° |
| 2026-04-29 08:10 | 44.85709 | 19.97641 | 4002 ft | 238 kts | 7° |
| 2026-04-29 08:10 | 44.86776 | 19.97832 | 3992 ft | 231 kts | 7° |
| 2026-04-29 08:10 | 44.88400 | 19.98131 | 4000 ft | 238 kts | 8° |
| 2026-04-29 08:11 | 44.90017 | 19.98494 | 3972 ft | 235 kts | 15° |
| 2026-04-29 08:11 | 44.91371 | 19.99662 | 3867 ft | 222 kts | 45° |
| 2026-04-29 08:11 | 44.92111 | 20.01415 | 3782 ft | 196 kts | 70° |
| 2026-04-29 08:11 | 44.92263 | 20.03262 | 3703 ft | 188 kts | 90° |
| 2026-04-29 08:12 | 44.92201 | 20.05097 | 3594 ft | 189 kts | 90° |
| 2026-04-29 08:12 | 44.92134 | 20.06938 | 3466 ft | 187 kts | 95° |
| 2026-04-29 08:12 | 44.91690 | 20.08682 | 3338 ft | 192 kts | 118° |
| 2026-04-29 08:12 | 44.90970 | 20.10255 | 3215 ft | 189 kts | 121° |
| 2026-04-29 08:13 | 44.90279 | 20.11825 | 3097 ft | 188 kts | 118° |
| 2026-04-29 08:13 | 44.89596 | 20.13406 | 2947 ft | 190 kts | 120° |
| 2026-04-29 08:13 | 44.88885 | 20.14979 | 2721 ft | 182 kts | 121° |
| 2026-04-29 08:13 | 44.88269 | 20.16395 | 2477 ft | 161 kts | 120° |
| 2026-04-29 08:14 | 44.87701 | 20.17682 | 2257 ft | 153 kts | 120° |
| 2026-04-29 08:14 | 44.87149 | 20.18929 | 2059 ft | 147 kts | 120° |
| 2026-04-29 08:14 | 44.86615 | 20.20138 | 1861 ft | 143 kts | 121° |
| 2026-04-29 08:14 | 44.86097 | 20.21308 | 1671 ft | 139 kts | 120° |
| 2026-04-29 08:15 | 44.85595 | 20.22454 | 1485 ft | 136 kts | 121° |
| 2026-04-29 08:15 | 44.85090 | 20.23576 | 1299 ft | 135 kts | 121° |
| 2026-04-29 08:15 | 44.84611 | 20.24672 | 1121 ft | 134 kts | 120° |
| 2026-04-29 08:15 | 44.84120 | 20.25789 | 924 ft | 133 kts | 120° |
| 2026-04-29 08:16 | 44.83632 | 20.26885 | 741 ft | 132 kts | 120° |
| 2026-04-29 08:16 | 44.83148 | 20.27994 | 542 ft | 132 kts | 121° |
| 2026-04-29 08:16 | 44.82660 | 20.29074 | 386 ft | 129 kts | 121° |
| 2026-04-29 08:16 | 44.82212 | 20.30084 | 316 ft | 111 kts | 121° |
| 2026-04-29 08:17 | 44.81948 | 20.30709 | 318 ft | 55 kts | 125° |
| 2026-04-29 08:17 | 44.81785 | 20.31040 | 317 ft | 31 kts | 122° |
| 2026-04-29 08:17 | 44.81648 | 20.31276 | 315 ft | 31 kts | 146° |
| 2026-04-29 08:17 | 44.81455 | 20.31418 | 316 ft | 28 kts | 152° |
| 2026-04-29 08:18 | 44.81320 | 20.31421 | 316 ft | 18 kts | 236° |
| 2026-04-29 08:18 | 44.81357 | 20.31300 | 316 ft | 15 kts | 302° |
| 2026-04-29 08:18 | 44.81414 | 20.31172 | 315 ft | 16 kts | 302° |
| 2026-04-29 08:18 | 44.81475 | 20.31034 | 316 ft | 18 kts | 302° |
| 2026-04-29 08:19 | 44.81552 | 20.30857 | 316 ft | 25 kts | 301° |
| 2026-04-29 08:19 | 44.81653 | 20.30634 | 317 ft | 27 kts | 302° |
| 2026-04-29 08:19 | 44.81753 | 20.30412 | 318 ft | 27 kts | 302° |
| 2026-04-29 08:19 | 44.81852 | 20.30183 | 316 ft | 28 kts | 300° |
| 2026-04-29 08:20 | 44.81954 | 20.29955 | 316 ft | 28 kts | 302° |
| 2026-04-29 08:20 | 44.82055 | 20.29734 | 317 ft | 23 kts | 304° |
| 2026-04-29 08:20 | 44.82060 | 20.29613 | 316 ft | 13 kts | 214° |
| 2026-04-29 08:20 | 44.81977 | 20.29536 | 316 ft | 15 kts | 212° |
| 2026-04-29 08:21 | 44.81884 | 20.29452 | 317 ft | 17 kts | 213° |
| 2026-04-29 08:21 | 44.81780 | 20.29364 | 317 ft | 18 kts | 211° |
| 2026-04-29 08:21 | 44.81684 | 20.29273 | 316 ft | 13 kts | 229° |
| 2026-04-29 08:21 | 44.81687 | 20.29167 | 316 ft | 12 kts | 227° |
| 2026-04-29 08:22 | 44.81644 | 20.29127 | 316 ft | 0 kts | 212° |
| 2026-04-29 08:22 | 44.81631 | 20.29116 | 316 ft | 6 kts | 212° |
| 2026-04-29 08:22 | 44.81572 | 20.29063 | 316 ft | 12 kts | 212° |
| 2026-04-29 08:22 | 44.81578 | 20.29014 | 316 ft | 4 kts | 11° |
| 2026-04-29 08:23 | 44.81592 | 20.29027 | 316 ft | 0 kts | 29° |